Time;durP1;ratioP1;P1;durP2;ratioP2;P2;SDS_P1;SDS_P2;PMS_P1;PMS_P2;Temp;Humidity;BMP_temperature;BMP_pressure;BME280_temperature;BME280_humidity;BME280_pressure;Samples;Min_cycle;Max_cycle;Signal;HPM_P1;HPM_P2
2021/07/23 00:00:33;;;;;;;9.23;4.28;;;;;;;14.69;72.57;99452.15;129735;1093;23062;-68
2021/07/23 00:03:03;;;;;;;9.60;5.23;;;;;;;14.70;72.19;99452.97;129580;1093;114000;-66
2021/07/23 00:05:32;;;;;;;7.80;4.33;;;;;;;14.69;72.31;99460.38;129679;1093;24097;-66
2021/07/23 00:08:07;;;;;;;7.48;4.23;;;;;;;14.69;72.20;99451.33;129652;1092;113861;-64
2021/07/23 00:10:37;;;;;;;7.68;4.03;;;;;;;14.68;71.96;99455.17;129603;1093;22537;-65
2021/07/23 00:13:06;;;;;;;10.93;4.33;;;;;;;14.65;72.32;99462.05;129741;1092;22547;-65
2021/07/23 00:15:52;;;;;;;12.23;4.68;;;;;;;14.64;72.43;99454.10;129621;1093;114416;-68
2021/07/23 00:18:21;;;;;;;7.58;3.98;;;;;;;14.57;72.40;99446.19;129749;1092;23616;-67
2021/07/23 00:20:50;;;;;;;7.10;4.23;;;;;;;14.60;72.23;99458.52;129632;1093;114183;-68
2021/07/23 00:23:19;;;;;;;7.88;3.53;;;;;;;14.56;72.46;99455.55;129740;1093;22545;-68
2021/07/23 00:25:49;;;;;;;9.63;3.78;;;;;;;14.54;72.36;99451.45;129682;1093;22568;-68
2021/07/23 00:28:18;;;;;;;9.53;4.28;;;;;;;14.50;72.60;99460.23;129623;1093;115295;-68
2021/07/23 00:30:47;;;;;;;11.35;4.28;;;;;;;14.47;72.67;99455.31;129746;1093;22560;-68
2021/07/23 00:33:16;;;;;;;9.95;4.30;;;;;;;14.46;72.50;99459.16;129626;1093;114478;-68
2021/07/23 00:35:45;;;;;;;9.78;3.70;;;;;;;14.45;72.71;99459.44;129673;1093;22565;-68
2021/07/23 00:38:14;;;;;;;8.93;4.25;;;;;;;14.45;72.46;99463.00;129633;1092;113892;-67
2021/07/23 00:40:44;;;;;;;8.55;3.58;;;;;;;14.44;72.47;99461.36;129680;1096;23168;-66
2021/07/23 00:43:13;;;;;;;14.93;4.00;;;;;;;14.44;72.58;99461.36;129737;1093;23409;-66
2021/07/23 00:45:44;;;;;;;7.97;4.13;;;;;;;14.45;72.71;99462.18;129595;1096;114136;-66
2021/07/23 00:48:14;;;;;;;7.08;3.63;;;;;;;14.44;72.57;99464.11;129338;1096;22598;-66
2021/07/23 00:50:44;;;;;;;11.63;3.80;;;;;;;14.45;72.53;99464.92;129300;1095;114397;-66
2021/07/23 00:53:14;;;;;;;7.75;3.08;;;;;;;14.45;72.48;99462.18;129327;1095;22595;-66
2021/07/23 00:56:04;;;;;;;8.15;3.40;;;;;;;14.45;72.49;99457.52;129506;1095;22579;-66
2021/07/23 00:58:33;;;;;;;11.50;3.40;;;;;;;14.46;72.08;99456.42;129382;1096;113563;-67
2021/07/23 01:01:03;;;;;;;10.85;3.43;;;;;;;14.47;72.02;99457.23;129420;1096;23616;-66
2021/07/23 01:03:34;;;;;;;5.60;3.68;;;;;;;14.45;71.73;99452.04;129539;1095;114098;-66
2021/07/23 01:06:04;;;;;;;6.90;3.60;;;;;;;14.44;71.95;99455.88;129404;1096;22639;-66
2021/07/23 01:08:33;;;;;;;13.03;3.55;;;;;;;14.44;71.79;99455.06;129547;1095;114093;-66
2021/07/23 01:11:03;;;;;;;8.03;3.13;;;;;;;14.43;71.79;99456.98;129656;1095;22552;-66
2021/07/23 01:13:41;;;;;;;10.00;3.48;;;;;;;14.41;71.82;99452.91;129384;1095;22586;-65
2021/07/23 01:16:11;;;;;;;9.45;3.38;;;;;;;14.39;72.10;99453.16;129262;1094;115034;-66
2021/07/23 01:18:42;;;;;;;9.15;3.65;;;;;;;14.38;71.72;99453.45;129709;1093;23378;-66
2021/07/23 01:21:11;;;;;;;20.23;4.23;;;;;;;14.36;71.65;99456.47;129603;1093;114706;-65
2021/07/23 01:23:41;;;;;;;6.05;2.83;;;;;;;14.35;71.64;99454.83;129767;1093;22539;-67
2021/07/23 01:26:27;;;;;;;8.78;3.63;;;;;;;14.33;71.88;99453.47;129595;1093;114269;-67
2021/07/23 01:28:56;;;;;;;8.63;3.98;;;;;;;14.31;71.46;99461.15;129703;1093;22584;-68
2021/07/23 01:31:25;;;;;;;11.48;3.30;;;;;;;14.29;71.59;99455.13;129689;1092;22621;-67
2021/07/23 01:33:54;;;;;;;6.95;3.13;;;;;;;14.27;71.60;99460.10;129620;1092;113799;-68
2021/07/23 01:36:25;;;;;;;8.03;3.00;;;;;;;14.23;71.67;99451.63;129685;1093;22537;-68
2021/07/23 01:38:55;;;;;;;6.88;3.03;;;;;;;14.20;71.98;99456.84;129651;1093;113793;-68
2021/07/23 01:41:25;;;;;;;4.78;2.78;;;;;;;14.16;72.01;99457.40;124892;1093;22809;-68
2021/07/23 01:43:55;;;;;;;10.38;3.65;;;;;;;14.15;72.04;99454.94;129668;1093;23369;-69
2021/07/23 01:46:24;;;;;;;5.30;2.68;;;;;;;14.14;71.58;99462.34;129587;1093;113753;-69
2021/07/23 01:49:02;;;;;;;12.18;3.03;;;;;;;14.14;71.56;99459.60;129697;1093;22601;-69
2021/07/23 01:51:35;;;;;;;7.43;2.80;;;;;;;14.14;71.71;99456.86;129555;1093;114048;-68
2021/07/23 01:54:07;;;;;;;5.20;2.90;;;;;;;14.14;71.88;99451.38;129731;1093;22607;-68
2021/07/23 01:56:39;;;;;;;7.05;3.35;;;;;;;14.13;71.97;99455.25;130270;1089;114306;-68
2021/07/23 01:59:14;;;;;;;11.98;3.33;;;;;;;14.13;71.47;99457.99;130365;1089;23453;-68
2021/07/23 02:01:43;;;;;;;7.50;3.30;;;;;;;14.13;71.85;99457.17;130385;1089;22540;-68
2021/07/23 02:04:34;;;;;;;4.43;2.43;;;;;;;14.13;71.41;99451.69;130244;1089;113992;-68
2021/07/23 02:07:03;;;;;;;8.00;2.68;;;;;;;14.08;71.43;99440.75;130375;1090;22637;-68
2021/07/23 02:09:32;;;;;;;4.05;2.83;;;;;;;14.14;71.29;99456.04;130287;1090;114857;-68
2021/07/23 02:12:07;;;;;;;5.35;3.00;;;;;;;14.13;71.42;99457.17;130442;1090;22559;-69
2021/07/23 02:14:55;;;;;;;5.05;2.68;;;;;;;14.12;71.36;99458.27;130241;1090;113767;-66
2021/07/23 02:17:25;;;;;;;6.93;2.75;;;;;;;14.08;71.55;99454.45;130438;1090;22588;-69
2021/07/23 02:19:54;;;;;;;4.43;2.68;;;;;;;14.04;71.81;99462.41;130432;1090;22581;-69
2021/07/23 02:22:23;;;;;;;3.78;2.38;;;;;;;14.03;72.00;99462.69;130280;1090;114341;-68
2021/07/23 02:24:53;;;;;;;5.33;2.15;;;;;;;14.00;71.88;99463.24;130363;1089;22591;-68
2021/07/23 02:27:22;;;;;;;4.10;2.35;;;;;;;13.99;72.09;99464.38;130295;1090;113767;-68
2021/07/23 02:29:59;;;;;;;8.28;2.65;;;;;;;13.97;72.51;99459.17;130322;1090;22563;-68
2021/07/23 02:32:35;;;;;;;6.90;2.50;;;;;;;13.97;72.75;99461.09;130281;1090;114142;-68
2021/07/23 02:35:05;;;;;;;5.45;2.75;;;;;;;13.98;72.33;99463.55;130426;1087;22528;-69
2021/07/23 02:37:46;;;;;;;4.88;2.63;;;;;;;14.02;72.27;99461.86;130389;1088;22555;-68
2021/07/23 02:40:15;;;;;;;4.43;2.30;;;;;;;14.06;72.15;99454.73;130250;1089;114188;-68
2021/07/23 02:42:55;;;;;;;6.38;2.60;;;;;;;14.11;71.96;99451.97;130399;1088;26445;-68
2021/07/23 02:45:24;;;;;;;6.65;2.58;;;;;;;14.14;71.97;99456.86;130304;1088;113804;-69
2021/07/23 02:47:53;;;;;;;6.18;2.43;;;;;;;14.17;72.36;99447.27;130113;1090;23144;-68
2021/07/23 02:50:23;;;;;;;5.88;2.63;;;;;;;14.21;72.53;99448.34;129966;1088;113872;-68
2021/07/23 02:52:52;;;;;;;6.15;2.90;;;;;;;14.24;72.45;99456.00;130385;1088;23141;-68
2021/07/23 02:55:23;;;;;;;6.35;3.10;;;;;;;14.25;72.07;99456.83;130402;1089;22615;-69
2021/07/23 02:57:55;;;;;;;12.03;3.30;;;;;;;14.25;72.15;99457.64;130342;1089;114197;-68
2021/07/23 03:00:27;;;;;;;15.50;3.10;;;;;;;14.30;72.48;99454.84;130356;1089;22584;-68
2021/07/23 03:02:58;;;;;;;13.00;2.70;;;;;;;14.36;72.82;99458.39;130250;1090;114383;-66
2021/07/23 03:05:29;;;;;;;7.68;2.75;;;;;;;14.41;72.60;99459.22;130405;1089;22530;-66
2021/07/23 03:07:59;;;;;;;10.05;3.23;;;;;;;14.47;72.27;99455.31;130406;1089;22556;-69
2021/07/23 03:10:29;;;;;;;11.70;3.03;;;;;;;14.53;71.92;99458.85;130293;1088;114178;-68
2021/07/23 03:12:59;;;;;;;7.38;2.98;;;;;;;14.60;71.52;99458.52;130076;1088;22568;-65
2021/07/23 03:15:29;;;;;;;9.18;2.68;;;;;;;14.67;71.20;99456.28;130279;1089;113788;-66
2021/07/23 03:17:59;;;;;;;7.15;2.50;;;;;;;14.73;70.50;99458.67;130383;1090;22549;-69
2021/07/23 03:20:29;;;;;;;8.78;3.18;;;;;;;14.81;70.24;99454.52;130313;1090;113923;-69
2021/07/23 03:22:59;;;;;;;8.33;2.90;;;;;;;14.89;70.09;99455.81;130358;1089;22563;-69
2021/07/23 03:25:39;;;;;;;5.15;3.00;;;;;;;14.96;69.85;99461.80;130407;1090;23773;-69
2021/07/23 03:28:08;;;;;;;8.10;3.40;;;;;;;15.01;69.48;99459.80;130258;1088;116550;-70
2021/07/23 03:30:47;;;;;;;8.10;2.70;;;;;;;15.08;69.09;99449.33;130402;1089;22527;-69
2021/07/23 03:33:16;;;;;;;11.30;3.35;;;;;;;15.13;69.02;99457.52;130317;1089;114360;-69
2021/07/23 03:35:45;;;;;;;8.98;3.00;;;;;;;15.18;68.93;99460.19;130440;1090;22623;-68
2021/07/23 03:38:15;;;;;;;6.33;3.25;;;;;;;15.27;68.49;99462.33;130295;1090;114337;-69
2021/07/23 03:40:44;;;;;;;10.50;3.23;;;;;;;15.33;68.54;99461.14;127262;1089;24346;-69
2021/07/23 03:43:16;;;;;;;5.85;3.23;;;;;;;15.39;68.62;99462.74;125744;1088;22816;-69
2021/07/23 03:46:08;;;;;;;10.23;4.10;;;;;;;15.47;68.55;99464.83;125569;1090;114239;-68
2021/07/23 03:48:43;;;;;;;13.95;4.93;;;;;;;15.54;68.29;99457.08;130437;1089;23405;-70
2021/07/23 03:51:19;;;;;;;9.75;4.48;;;;;;;15.61;68.01;99457.56;130288;1090;114173;-69
2021/07/23 03:53:49;;;;;;;11.03;4.30;;;;;;;15.67;67.92;99464.64;130452;1089;22529;-70
2021/07/23 03:56:24;;;;;;;8.13;3.63;;;;;;;15.76;67.85;99456.56;130264;1090;114124;-69
2021/07/23 03:58:53;;;;;;;11.95;3.90;;;;;;;15.81;67.48;99453.77;130440;1088;22659;-70
2021/07/23 04:01:28;;;;;;;11.23;3.75;;;;;;;15.89;67.34;99458.59;130441;1090;22603;-69
2021/07/23 04:03:58;;;;;;;13.53;4.70;;;;;;;15.94;67.57;99455.79;130270;1090;114012;-69
2021/07/23 04:06:28;;;;;;;21.03;4.60;;;;;;;16.01;67.41;99460.94;130408;1090;22568;-69
2021/07/23 04:08:57;;;;;;;10.00;3.80;;;;;;;16.09;67.28;99455.59;130375;1090;114191;-69
2021/07/23 04:11:33;;;;;;;7.23;3.68;;;;;;;16.21;67.25;99457.89;130426;1089;22576;-69
2021/07/23 04:14:05;;;;;;;13.68;4.25;;;;;;;16.34;66.91;99453.58;130442;1089;22574;-69
2021/07/23 04:16:34;;;;;;;7.40;4.03;;;;;;;16.45;66.90;99455.88;130342;1090;113806;-69
2021/07/23 04:19:03;;;;;;;10.70;4.48;;;;;;;16.57;66.40;99458.20;130381;1090;22577;-69
2021/07/23 04:21:58;;;;;;;8.85;3.65;;;;;;;16.70;66.24;99453.89;130227;1090;113960;-67
2021/07/23 04:24:44;;;;;;;13.20;4.13;;;;;;;16.80;65.83;99443.53;130439;1090;22568;-68
2021/07/23 04:27:14;;;;;;;9.33;3.13;;;;;;;16.90;65.41;99450.79;130342;1090;113934;-68
2021/07/23 04:29:58;;;;;;;10.20;3.53;;;;;;;16.97;65.08;99445.73;130402;1088;22539;-69
2021/07/23 04:32:28;;;;;;;12.30;4.23;;;;;;;17.04;64.85;99448.07;130280;1089;114421;-68
2021/07/23 04:34:57;;;;;;;14.63;4.43;;;;;;;17.10;64.67;99447.69;130449;1090;22595;-68
2021/07/23 04:37:28;;;;;;;12.13;3.75;;;;;;;17.18;64.48;99446.16;130452;1088;23814;-68
2021/07/23 04:40:14;;;;;;;11.08;4.00;;;;;;;17.25;64.23;99441.91;128155;1088;113952;-69
2021/07/23 04:42:44;;;;;;;15.83;3.85;;;;;;;17.34;64.12;99444.77;130419;1089;23823;-69
2021/07/23 04:45:13;;;;;;;16.18;3.75;;;;;;;17.41;64.06;99444.38;130321;1089;114426;-69
2021/07/23 04:47:54;;;;;;;14.90;4.40;;;;;;;17.50;64.03;99442.53;130444;1089;22582;-69
2021/07/23 04:50:24;;;;;;;10.60;3.67;;;;;;;17.57;63.78;99443.78;130327;1090;114368;-67
2021/07/23 04:53:28;;;;;;;16.70;4.08;;;;;;;17.66;63.16;99439.20;130273;1089;22548;-68
2021/07/23 04:56:23;;;;;;;8.08;4.08;;;;;;;17.76;63.02;99429.90;130096;1090;114059;-68
2021/07/23 04:58:52;;;;;;;19.20;4.65;;;;;;;17.85;62.62;99436.34;130414;1090;23789;-68
2021/07/23 05:01:21;;;;;;;10.53;4.18;;;;;;;17.94;62.49;99433.66;130456;1088;22583;-68
2021/07/23 05:03:50;;;;;;;13.43;4.75;;;;;;;18.02;62.49;99432.95;130320;1089;113963;-71
2021/07/23 05:06:19;;;;;;;15.20;5.05;;;;;;;18.11;62.49;99441.30;130393;1089;22552;-69
2021/07/23 05:08:49;;;;;;;34.25;7.65;;;;;;;18.22;61.99;99442.70;130314;1090;114097;-68
2021/07/23 05:11:17;;;;;;;37.25;8.63;;;;;;;18.34;61.51;99441.02;130434;1090;23181;-69
2021/07/23 05:13:51;;;;;;;17.63;4.60;;;;;;;18.50;61.22;99435.97;130400;1089;22588;-69
2021/07/23 05:16:20;;;;;;;13.18;4.48;;;;;;;18.67;61.13;99436.14;129962;1089;114646;-68
2021/07/23 05:18:50;;;;;;;9.43;3.98;;;;;;;18.90;59.60;99436.15;130391;1089;22552;-69
2021/07/23 05:21:18;;;;;;;9.30;3.35;;;;;;;19.23;58.82;99439.41;130019;1090;114256;-69
2021/07/23 05:23:47;;;;;;;8.63;3.48;;;;;;;19.60;57.84;99444.50;130363;1090;22581;-69
2021/07/23 05:26:16;;;;;;;12.20;4.33;;;;;;;20.03;56.98;99450.16;130334;1090;114194;-71
2021/07/23 05:28:46;;;;;;;7.18;3.10;;;;;;;20.46;56.00;99447.48;130446;1089;23416;-69
2021/07/23 05:31:17;;;;;;;8.58;3.30;;;;;;;20.93;55.19;99430.16;130416;1090;22565;-69
2021/07/23 05:33:49;;;;;;;11.13;3.98;;;;;;;21.41;53.70;99438.21;130310;1089;113753;-68
2021/07/23 05:36:17;;;;;;;13.55;4.38;;;;;;;21.83;52.44;99433.61;130429;1089;22646;-71
2021/07/23 05:38:46;;;;;;;11.50;4.15;;;;;;;22.26;51.46;99433.38;130268;1090;115058;-71
2021/07/23 05:41:15;;;;;;;12.23;3.85;;;;;;;22.66;49.79;99433.70;130391;1090;22532;-68
2021/07/23 05:43:44;;;;;;;9.45;3.08;;;;;;;22.97;49.87;99424.13;130417;1088;22566;-68
2021/07/23 05:46:13;;;;;;;17.58;4.53;;;;;;;23.31;48.25;99426.53;130324;1089;113760;-68
2021/07/23 05:48:42;;;;;;;15.78;5.13;;;;;;;23.65;48.18;99435.66;130428;1089;22671;-67
2021/07/23 05:51:12;;;;;;;15.05;5.25;;;;;;;23.96;46.91;99427.51;130319;1089;113995;-67
2021/07/23 05:53:41;;;;;;;12.43;3.68;;;;;;;24.26;45.29;99431.67;130396;1089;22644;-65
2021/07/23 05:56:10;;;;;;;8.48;3.68;;;;;;;24.54;44.63;99434.50;130450;1088;22722;-68
2021/07/23 05:58:41;;;;;;;10.40;3.33;;;;;;;24.80;44.42;99433.27;130318;1089;113549;-67
2021/07/23 06:01:10;;;;;;;10.95;3.43;;;;;;;25.00;44.17;99424.70;130435;1090;22543;-70
2021/07/23 06:03:40;;;;;;;19.90;3.35;;;;;;;25.22;42.79;99428.09;130249;1089;114013;-69
2021/07/23 06:06:44;;;;;;;6.98;2.98;;;;;;;25.41;41.79;99428.18;125687;1090;22775;-68
2021/07/23 06:09:13;;;;;;;6.65;3.23;;;;;;;25.44;41.36;99433.05;129614;1093;113316;-67
2021/07/23 06:11:42;;;;;;;12.68;3.20;;;;;;;25.39;41.86;99429.73;130034;1093;22663;-70
2021/07/23 06:14:12;;;;;;;10.73;3.60;;;;;;;25.32;42.00;99430.34;130024;1093;23411;-69
2021/07/23 06:16:43;;;;;;;10.53;2.90;;;;;;;25.12;41.34;99428.59;129784;1093;113848;-67
2021/07/23 06:19:12;;;;;;;10.28;2.38;;;;;;;24.72;41.46;99437.00;129810;1092;23990;-68
2021/07/23 06:21:41;;;;;;;7.78;2.83;;;;;;;24.27;41.68;99435.27;129725;1093;113240;-68
2021/07/23 06:24:10;;;;;;;5.05;2.40;;;;;;;23.84;42.50;99442.25;129765;1093;23130;-68
2021/07/23 06:26:40;;;;;;;4.70;2.48;;;;;;;23.46;43.18;99436.17;129690;1093;113724;-68
2021/07/23 06:29:09;;;;;;;13.90;2.83;;;;;;;23.20;44.38;99434.52;129920;1092;22555;-68
2021/07/23 06:31:38;;;;;;;8.25;2.78;;;;;;;23.04;44.52;99430.77;129706;1093;22596;-68
2021/07/23 06:34:07;;;;;;;10.80;2.53;;;;;;;22.93;45.04;99434.32;129806;1093;114151;-69
2021/07/23 06:36:36;;;;;;;7.53;2.68;;;;;;;22.78;45.50;99428.25;129915;1093;22532;-68
2021/07/23 06:39:08;;;;;;;7.40;2.08;;;;;;;22.65;46.22;99428.50;129841;1093;113306;-71
2021/07/23 06:41:37;;;;;;;4.48;2.20;;;;;;;22.51;45.70;99424.02;129861;1092;22517;-67
2021/07/23 06:44:06;;;;;;;6.30;1.80;;;;;;;22.40;46.22;99431.14;129832;1093;23009;-67
2021/07/23 06:46:35;;;;;;;4.63;2.05;;;;;;;22.35;45.64;99427.77;129819;1092;113785;-67
2021/07/23 06:49:04;;;;;;;3.03;1.85;;;;;;;22.26;45.17;99435.33;129824;1093;22546;-67
2021/07/23 06:51:33;;;;;;;8.25;1.83;;;;;;;22.10;45.07;99430.38;129663;1092;113612;-67
2021/07/23 06:54:02;;;;;;;3.08;1.90;;;;;;;22.00;45.00;99416.91;129790;1093;22533;-68
2021/07/23 06:56:31;;;;;;;7.23;2.15;;;;;;;21.91;45.33;99431.95;129731;1093;113689;-69
2021/07/23 06:59:00;;;;;;;4.35;1.93;;;;;;;21.80;45.31;99420.41;129763;1093;22575;-67
2021/07/23 07:01:30;;;;;;;5.48;1.85;;;;;;;21.74;45.74;99425.35;129798;1093;22565;-68
2021/07/23 07:03:58;;;;;;;5.10;2.48;;;;;;;21.72;45.91;99424.05;129695;1093;113637;-67
2021/07/23 07:06:27;;;;;;;6.33;2.33;;;;;;;21.72;45.98;99426.83;129779;1093;22910;-67
2021/07/23 07:08:57;;;;;;;6.48;2.03;;;;;;;21.75;46.71;99417.84;129700;1092;113763;-67
2021/07/23 07:11:26;;;;;;;6.43;2.13;;;;;;;21.77;46.00;99416.37;129802;1092;22549;-67
2021/07/23 07:13:55;;;;;;;5.03;2.05;;;;;;;21.82;46.68;99418.93;129760;1093;22540;-67
2021/07/23 07:16:24;;;;;;;9.28;2.45;;;;;;;21.87;46.77;99418.75;129647;1093;113427;-68
2021/07/23 07:18:53;;;;;;;8.55;2.10;;;;;;;21.90;46.06;99416.45;129796;1092;22570;-68
2021/07/23 07:21:22;;;;;;;6.45;2.10;;;;;;;21.94;46.19;99420.98;129643;1092;113463;-67
2021/07/23 07:23:51;;;;;;;6.60;2.38;;;;;;;22.00;45.13;99405.80;129785;1093;22537;-68
2021/07/23 07:26:20;;;;;;;3.60;2.05;;;;;;;22.04;45.20;99419.83;129636;1093;113828;-68
2021/07/23 07:28:50;;;;;;;4.50;1.90;;;;;;;22.06;45.52;99418.34;129767;1093;22537;-67
2021/07/23 07:31:19;;;;;;;8.08;1.50;;;;;;;22.05;44.11;99421.45;129815;1092;23105;-67
2021/07/23 07:33:48;;;;;;;4.13;1.60;;;;;;;22.05;43.66;99424.23;129659;1093;113664;-67
2021/07/23 07:36:18;;;;;;;2.13;1.45;;;;;;;22.06;43.69;99423.89;129757;1093;22566;-67
2021/07/23 07:38:47;;;;;;;7.13;1.85;;;;;;;22.08;43.70;99429.08;129679;1093;113741;-69
2021/07/23 07:41:17;;;;;;;2.45;1.60;;;;;;;22.08;44.37;99421.56;129761;1093;22622;-73
2021/07/23 07:43:47;;;;;;;4.43;1.70;;;;;;;22.09;44.21;99417.65;129784;1093;23467;-73
2021/07/23 07:46:15;;;;;;;3.70;1.53;;;;;;;22.13;44.50;99420.56;129707;1093;113588;-73
2021/07/23 07:48:46;;;;;;;3.10;1.43;;;;;;;22.13;43.89;99421.38;129754;1093;22611;-74
2021/07/23 07:51:15;;;;;;;4.28;1.40;;;;;;;22.12;44.15;99413.39;129715;1093;113686;-73
2021/07/23 07:53:44;;;;;;;4.90;1.88;;;;;;;22.19;45.06;99416.45;129814;1093;22526;-73
2021/07/23 07:56:14;;;;;;;2.48;1.20;;;;;;;22.26;43.31;99418.67;129787;1091;22531;-74
2021/07/23 07:58:43;;;;;;;5.30;2.00;;;;;;;22.29;43.41;99423.56;129660;1092;114255;-74
2021/07/23 08:01:14;;;;;;;4.60;1.48;;;;;;;22.27;43.70;99428.63;129789;1092;22578;-72
2021/07/23 08:03:43;;;;;;;5.90;1.50;;;;;;;22.26;43.57;99419.49;129682;1092;113637;-73
2021/07/23 08:06:23;;;;;;;2.75;1.20;;;;;;;22.27;43.15;99421.13;129805;1093;22622;-70
2021/07/23 08:08:53;;;;;;;8.00;1.50;;;;;;;22.27;43.67;99425.86;129687;1093;114174;-72
2021/07/23 08:11:22;;;;;;;2.70;1.80;;;;;;;22.29;43.76;99427.15;129760;1093;23349;-72
2021/07/23 08:13:51;;;;;;;3.53;1.23;;;;;;;22.33;42.84;99425.33;129771;1093;22548;-72
2021/07/23 08:16:20;;;;;;;2.85;1.38;;;;;;;22.37;43.58;99431.81;129723;1092;113699;-70
2021/07/23 08:18:50;;;;;;;3.85;1.43;;;;;;;22.41;43.62;99429.17;129792;1092;22555;-73
2021/07/23 08:21:18;;;;;;;2.03;1.35;;;;;;;22.42;43.81;99434.39;129708;1093;113579;-73
2021/07/23 08:23:48;;;;;;;5.48;1.80;;;;;;;22.45;43.69;99425.39;129794;1093;22525;-72
2021/07/23 08:26:17;;;;;;;1.70;1.25;;;;;;;22.47;44.17;99433.39;129771;1093;22593;-73
2021/07/23 08:28:47;;;;;;;4.03;1.30;;;;;;;22.51;44.40;99437.91;129734;1093;113388;-74
2021/07/23 08:31:16;;;;;;;2.55;1.20;;;;;;;22.53;43.28;99430.05;129803;1093;22553;-74
2021/07/23 08:33:45;;;;;;;1.93;1.43;;;;;;;22.53;43.50;99418.94;129660;1093;113694;-74
2021/07/23 08:36:14;;;;;;;5.93;1.80;;;;;;;22.56;44.95;99423.02;129822;1092;22536;-74
2021/07/23 08:38:43;;;;;;;4.08;1.63;;;;;;;22.65;44.63;99422.95;129660;1093;114871;-73
2021/07/23 08:41:12;;;;;;;2.23;1.60;;;;;;;22.74;43.56;99430.05;126493;1093;22826;-74
2021/07/23 08:43:44;;;;;;;3.25;1.30;;;;;;;22.78;43.11;99425.47;127078;1093;23699;-73
2021/07/23 08:46:15;;;;;;;3.40;1.35;;;;;;;22.76;43.63;99421.38;124922;1093;114597;-75
2021/07/23 08:48:44;;;;;;;1.85;1.45;;;;;;;22.75;43.77;99423.34;129803;1093;22535;-72
2021/07/23 08:51:19;;;;;;;4.20;1.30;;;;;;;22.75;42.94;99426.11;129697;1093;116581;-73
2021/07/23 08:53:48;;;;;;;2.83;1.25;;;;;;;22.71;43.27;99421.57;129800;1093;22541;-74
2021/07/23 08:56:17;;;;;;;6.10;1.50;;;;;;;22.68;43.32;99413.91;129791;1093;23373;-77
2021/07/23 08:58:46;;;;;;;4.08;1.80;;;;;;;22.68;43.04;99416.69;129702;1092;113492;-72
2021/07/23 09:01:15;;;;;;;2.08;1.20;;;;;;;22.70;43.22;99415.20;129825;1093;22666;-75
2021/07/23 09:03:45;;;;;;;3.93;1.50;;;;;;;22.74;43.39;99426.45;129673;1093;113565;-75
2021/07/23 09:06:18;;;;;;;3.58;1.48;;;;;;;22.74;42.86;99415.34;129829;1093;23338;-74
2021/07/23 09:08:53;;;;;;;3.33;1.68;;;;;;;22.77;43.62;99418.28;129630;1093;114093;-76
2021/07/23 09:11:27;;;;;;;2.25;1.10;;;;;;;22.82;43.65;99412.50;129784;1093;22550;-73
2021/07/23 09:14:14;;;;;;;4.15;1.40;;;;;;;22.89;43.00;99407.21;129808;1092;22520;-71
2021/07/23 09:16:54;;;;;;;3.48;1.33;;;;;;;22.96;41.60;99400.27;129676;1093;114879;-71
2021/07/23 09:19:24;;;;;;;2.65;1.40;;;;;;;23.00;41.07;99402.03;129782;1093;22564;-72
2021/07/23 09:21:57;;;;;;;1.33;1.20;;;;;;;23.03;41.64;99403.31;129673;1093;113587;-73
2021/07/23 09:24:49;;;;;;;3.80;1.23;;;;;;;23.07;41.42;99395.92;129819;1092;22526;-71
2021/07/23 09:27:43;;;;;;;4.98;1.60;;;;;;;23.09;42.01;99396.36;129632;1093;113680;-72
2021/07/23 09:30:13;;;;;;;2.93;1.40;;;;;;;23.12;42.11;99396.49;129776;1093;22590;-73
2021/07/23 09:32:42;;;;;;;4.40;1.78;;;;;;;23.16;41.28;99399.41;129672;1093;113723;-72
2021/07/23 09:35:14;;;;;;;2.80;1.30;;;;;;;23.18;41.92;99402.66;129801;1093;22545;-71
2021/07/23 09:37:56;;;;;;;3.30;1.63;;;;;;;23.21;42.23;99393.63;129779;1093;22624;-73
2021/07/23 09:40:43;;;;;;;2.13;1.63;;;;;;;23.23;41.74;99391.29;129640;1093;113665;-67
2021/07/23 09:43:12;;;;;;;6.48;2.15;;;;;;;23.23;42.11;99389.32;129819;1093;23395;-66
2021/07/23 09:45:41;;;;;;;2.48;1.48;;;;;;;23.23;41.77;99389.32;129680;1093;113664;-66
2021/07/23 09:48:12;;;;;;;10.68;1.65;;;;;;;23.25;41.08;99383.42;129801;1092;22571;-69
2021/07/23 09:50:44;;;;;;;2.80;1.60;;;;;;;23.25;41.14;99380.64;129735;1093;113985;-68
2021/07/23 09:53:15;;;;;;;2.57;1.60;;;;;;;23.26;42.23;99379.48;129739;1093;22544;-66
2021/07/23 09:55:48;;;;;;;2.73;1.60;;;;;;;23.28;41.52;99374.40;129767;1093;22680;-66
2021/07/23 09:58:20;;;;;;;8.20;2.45;;;;;;;23.33;41.18;99382.52;129699;1093;113869;-66
2021/07/23 10:00:55;;;;;;;6.25;1.55;;;;;;;23.36;41.42;99372.68;129761;1093;22539;-66
2021/07/23 10:03:27;;;;;;;4.70;1.55;;;;;;;23.35;40.97;99377.43;129685;1093;113521;-65
2021/07/23 10:05:59;;;;;;;8.80;1.58;;;;;;;23.35;41.03;99379.40;129760;1093;22579;-65
2021/07/23 10:08:31;;;;;;;9.93;1.68;;;;;;;23.36;41.67;99367.94;129720;1093;22620;-65
2021/07/23 10:11:04;;;;;;;5.73;2.37;;;;;;;23.41;42.17;99361.31;129551;1092;113365;-65
2021/07/23 10:13:32;;;;;;;2.75;1.80;;;;;;;23.45;42.11;99359.47;129782;1093;23579;-65
2021/07/23 10:16:02;;;;;;;4.83;1.95;;;;;;;23.50;42.41;99362.84;129610;1093;113999;-60
2021/07/23 10:18:35;;;;;;;12.65;3.18;;;;;;;23.58;41.71;99369.45;129736;1092;22565;-60
2021/07/23 10:21:04;;;;;;;9.65;1.98;;;;;;;23.63;41.84;99369.23;129644;1093;114187;-60
2021/07/23 10:23:33;;;;;;;2.88;1.88;;;;;;;23.68;42.21;99373.73;129744;1092;22644;-60
2021/07/23 10:26:14;;;;;;;7.88;1.95;;;;;;;23.72;42.13;99360.76;129745;1093;22593;-60
2021/07/23 10:28:43;;;;;;;3.35;1.80;;;;;;;23.76;42.06;99361.69;129695;1093;113848;-59
2021/07/23 10:31:40;;;;;;;5.33;2.10;;;;;;;23.78;41.75;99360.19;129790;1093;22586;-59
2021/07/23 10:34:10;;;;;;;3.15;1.80;;;;;;;23.78;42.91;99359.38;129678;1092;113651;-60
2021/07/23 10:36:40;;;;;;;3.75;1.60;;;;;;;23.79;42.44;99358.22;129821;1093;22524;-60
2021/07/23 10:39:10;;;;;;;2.73;2.05;;;;;;;23.82;43.13;99343.58;129736;1093;113933;-60
2021/07/23 10:41:45;;;;;;;4.88;2.08;;;;;;;23.87;42.09;99355.30;129819;1093;22541;-61
2021/07/23 10:44:27;;;;;;;12.63;2.55;;;;;;;23.93;41.94;99353.91;129771;1093;22667;-60
2021/07/23 10:46:56;;;;;;;7.18;2.33;;;;;;;23.99;42.04;99354.45;129663;1093;113804;-60
2021/07/23 10:49:31;;;;;;;7.93;2.75;;;;;;;24.03;41.32;99360.13;129771;1093;22593;-60
2021/07/23 10:52:01;;;;;;;4.13;2.15;;;;;;;24.00;40.97;99358.86;129658;1093;113800;-60
2021/07/23 10:54:33;;;;;;;5.40;1.90;;;;;;;23.96;42.45;99352.36;129801;1093;22528;-60
2021/07/23 10:57:06;;;;;;;3.38;1.78;;;;;;;24.00;42.03;99344.94;129674;1092;113949;-63
2021/07/23 10:59:38;;;;;;;6.30;2.28;;;;;;;24.05;41.65;99338.33;129782;1093;23832;-60
2021/07/23 11:02:16;;;;;;;3.88;1.60;;;;;;;24.10;40.89;99340.84;129788;1093;22530;-61
2021/07/23 11:04:47;;;;;;;3.78;1.80;;;;;;;24.09;40.43;99334.50;129702;1092;113824;-61
2021/07/23 11:07:25;;;;;;;5.63;2.00;;;;;;;24.11;40.41;99331.34;129811;1092;22600;-64
2021/07/23 11:09:54;;;;;;;4.88;2.30;;;;;;;24.10;40.07;99338.06;129671;1093;114330;-62
2021/07/23 11:12:33;;;;;;;7.55;3.38;;;;;;;24.08;40.62;99330.09;129790;1093;23569;-61
2021/07/23 11:15:05;;;;;;;3.28;2.18;;;;;;;24.07;40.32;99334.04;129679;1093;114373;-63
2021/07/23 11:17:55;;;;;;;2.43;2.20;;;;;;;24.04;40.29;99334.73;129834;1092;22993;-61
2021/07/23 11:20:28;;;;;;;7.65;2.30;;;;;;;23.99;40.57;99332.19;129826;1093;22513;-62
2021/07/23 11:22:58;;;;;;;6.23;2.50;;;;;;;23.96;40.77;99318.97;129695;1093;113401;-62
2021/07/23 11:25:28;;;;;;;3.15;2.28;;;;;;;23.96;40.09;99318.97;129837;1092;22529;-62
2021/07/23 11:28:02;;;;;;;4.10;2.00;;;;;;;23.98;40.89;99322.21;129652;1093;113920;-63
2021/07/23 11:30:33;;;;;;;4.15;2.53;;;;;;;24.03;40.27;99321.98;129810;1093;23308;-63
2021/07/23 11:33:04;;;;;;;3.93;2.20;;;;;;;24.09;41.46;99322.55;129721;1093;113995;-62
2021/07/23 11:35:39;;;;;;;3.28;2.18;;;;;;;24.16;41.04;99331.09;129831;1092;22563;-62
2021/07/23 11:38:14;;;;;;;3.38;2.13;;;;;;;24.18;40.73;99326.80;129789;1091;22648;-62
2021/07/23 11:40:43;;;;;;;8.70;2.13;;;;;;;24.20;41.84;99312.53;129674;1093;114976;-61